createdAt,value
2022-08-18T00:02:04.211Z,97662.75
2022-08-18T00:05:12.995Z,97670.66
2022-08-18T00:08:20.393Z,97682.25
2022-08-18T00:11:26.958Z,97687.66
2022-08-18T00:14:35.754Z,97689.22
2022-08-18T00:17:41.573Z,97684.50
2022-08-18T00:20:53.816Z,97681.22
2022-08-18T00:24:12.923Z,97678.81
2022-08-18T00:27:23.209Z,97675.53
2022-08-18T00:30:40.822Z,97672.72
2022-08-18T00:33:53.218Z,97674.34
2022-08-18T00:36:58.794Z,97667.66
2022-08-18T00:40:04.939Z,97664.69
2022-08-18T00:43:17.795Z,97671.72
2022-08-18T00:46:30.850Z,97661.97
2022-08-18T00:49:36.717Z,97662.25
2022-08-18T00:52:44.149Z,97667.72
2022-08-18T00:55:53.876Z,97665.59
2022-08-18T00:59:09.198Z,97673.81
2022-08-18T01:02:29.594Z,97663.00
2022-08-18T01:05:45.370Z,97677.59
2022-08-18T01:08:52.293Z,97666.09
2022-08-18T01:11:58.489Z,97669.59
2022-08-18T01:15:05.760Z,97671.78
2022-08-18T01:18:29.973Z,97666.09
2022-08-18T01:21:54.502Z,97664.47
2022-08-18T01:25:26.384Z,97663.09
2022-08-18T01:28:42.743Z,97652.09
2022-08-18T01:31:56.466Z,97651.81
2022-08-18T01:35:04.445Z,97647.78
2022-08-18T01:38:13.640Z,97643.09
2022-08-18T01:41:30.412Z,97641.75
2022-08-18T01:44:36.782Z,97636.31
2022-08-18T01:47:47.354Z,97641.41
2022-08-18T01:50:54.670Z,97634.13
2022-08-18T01:54:00.736Z,97618.38
2022-08-18T01:57:14.748Z,97612.91
2022-08-18T02:00:22.239Z,97624.03
2022-08-18T02:03:39.241Z,97621.88
2022-08-18T02:06:48.026Z,97622.69
2022-08-18T02:09:53.677Z,97627.50
2022-08-18T02:13:01.985Z,97634.50
2022-08-18T02:16:08.907Z,97624.69
2022-08-18T02:19:15.484Z,97621.75
2022-08-18T02:22:24.968Z,97628.00
2022-08-18T02:25:30.510Z,97634.81
2022-08-18T02:28:39.151Z,97635.66
2022-08-18T02:31:46.304Z,97633.00
2022-08-18T02:34:52.061Z,97630.06
2022-08-18T02:37:57.644Z,97639.53
2022-08-18T02:41:09.641Z,97639.03
2022-08-18T02:44:17.871Z,97644.69
2022-08-18T02:47:23.728Z,97637.28
2022-08-18T02:50:29.307Z,97647.97
2022-08-18T02:53:36.020Z,97654.22
2022-08-18T02:56:51.441Z,97652.09
2022-08-18T03:00:03.591Z,97654.63
2022-08-18T03:03:21.147Z,97668.91
2022-08-18T03:06:29.199Z,97674.94
2022-08-18T03:09:37.591Z,97670.47
2022-08-18T03:12:45.406Z,97666.25
2022-08-18T03:15:57.064Z,97667.91
2022-08-18T03:19:05.443Z,97660.16
2022-08-18T03:22:27.635Z,97668.34
2022-08-18T03:25:34.914Z,97660.78
2022-08-18T03:28:49.905Z,97672.72
2022-08-18T03:31:58.389Z,97665.22
2022-08-18T03:35:23.723Z,97665.84
2022-08-18T03:38:29.258Z,97667.06
2022-08-18T03:41:43.605Z,97670.75
2022-08-18T03:45:13.427Z,97667.25
2022-08-18T03:48:29.280Z,97669.03
2022-08-18T03:51:40.275Z,97678.63
2022-08-18T03:54:46.776Z,97675.41
2022-08-18T03:57:53.259Z,97675.53
2022-08-18T04:01:09.138Z,97673.84
2022-08-18T04:04:21.688Z,97676.03
2022-08-18T04:07:27.237Z,97670.50
2022-08-18T04:10:33.449Z,97671.47
2022-08-18T04:13:39.512Z,97672.13
2022-08-18T04:16:46.179Z,97672.06
2022-08-18T04:19:54.733Z,97675.72
2022-08-18T04:23:00.304Z,97672.63
2022-08-18T04:26:11.410Z,97666.19
2022-08-18T04:29:25.830Z,97676.09
2022-08-18T04:32:33.745Z,97671.34
2022-08-18T04:35:41.951Z,97679.06
2022-08-18T04:38:48.418Z,97677.44
2022-08-18T04:41:54.981Z,97677.34
2022-08-18T04:45:00.890Z,97675.63
2022-08-18T04:48:07.439Z,97678.19
2022-08-18T04:52:36.412Z,97673.34
2022-08-18T04:54:44.728Z,97677.75
2022-08-18T04:57:50.420Z,97672.88
2022-08-18T05:01:11.057Z,97676.19
2022-08-18T05:04:22.289Z,97675.59
2022-08-18T05:07:30.562Z,97668.22
2022-08-18T05:10:36.292Z,97672.53
2022-08-18T05:13:43.127Z,97673.56
2022-08-18T05:16:49.668Z,97679.22
2022-08-18T05:19:55.419Z,97681.91
2022-08-18T05:23:03.850Z,97686.22
2022-08-18T05:26:09.677Z,97676.50
2022-08-18T05:29:19.141Z,97681.75
2022-08-18T05:32:41.099Z,97687.50
2022-08-18T05:36:15.464Z,97684.78
2022-08-18T05:39:30.580Z,97677.44
2022-08-18T05:42:42.864Z,97677.13
2022-08-18T05:45:54.816Z,97680.06
2022-08-18T05:49:00.467Z,97668.63
2022-08-18T05:52:17.212Z,97685.06
2022-08-18T05:55:49.671Z,97678.56
2022-08-18T05:58:59.158Z,97682.69
2022-08-18T06:02:28.115Z,97686.09
2022-08-18T06:05:41.400Z,97684.72
2022-08-18T06:08:55.454Z,97697.44
2022-08-18T06:12:14.827Z,97688.53
2022-08-18T06:15:32.819Z,97693.81
2022-08-18T06:18:57.510Z,97700.66
2022-08-18T06:22:19.388Z,97698.91
2022-08-18T06:25:38.958Z,97708.22
2022-08-18T06:29:12.127Z,97707.41
2022-08-18T06:32:38.152Z,97707.34
2022-08-18T06:35:56.933Z,97710.66
2022-08-18T06:39:20.749Z,97714.59
2022-08-18T06:42:32.814Z,97715.03
2022-08-18T06:45:52.334Z,97707.94
2022-08-18T06:49:06.949Z,97707.13
2022-08-18T06:52:31.244Z,97711.31
2022-08-18T06:55:40.929Z,97719.41
2022-08-18T06:58:51.213Z,97722.19
2022-08-18T07:02:07.924Z,97713.13
2022-08-18T07:05:28.780Z,97714.06
2022-08-18T07:08:40.515Z,97719.03
2022-08-18T07:12:10.144Z,97716.88
2022-08-18T07:15:26.138Z,97715.53
2022-08-18T07:18:34.740Z,97706.66
2022-08-18T07:21:43.854Z,97708.91
2022-08-18T07:24:54.511Z,97708.41
2022-08-18T07:28:02.227Z,97707.44
2022-08-18T07:31:25.216Z,97711.22
2022-08-18T07:34:42.457Z,97705.81
2022-08-18T07:38:40.885Z,97697.69
2022-08-18T07:41:56.342Z,97707.84
2022-08-18T07:45:12.900Z,97702.94
2022-08-18T07:48:39.916Z,97704.56
2022-08-18T07:51:57.063Z,97699.03
2022-08-18T07:55:27.494Z,97706.97
2022-08-18T07:58:47.605Z,97709.50
2022-08-18T08:02:21.207Z,97715.34
2022-08-18T08:06:00.508Z,97719.13
2022-08-18T08:09:55.783Z,97715.19
2022-08-18T08:13:54.168Z,97720.72
2022-08-18T08:17:25.841Z,97730.09
2022-08-18T08:20:46.318Z,97734.34
2022-08-18T08:24:08.773Z,97742.94
2022-08-18T08:27:39.017Z,97748.19
2022-08-18T08:31:33.103Z,97736.31
2022-08-18T08:34:53.495Z,97732.19
2022-08-18T08:38:39.335Z,97716.50
2022-08-18T08:41:51.405Z,97719.41
2022-08-18T08:45:09.855Z,97725.78
2022-08-18T08:48:26.482Z,97729.97
2022-08-18T08:51:42.785Z,97736.63
2022-08-18T08:54:57.286Z,97734.53
2022-08-18T08:58:24.766Z,97738.53
2022-08-18T09:01:56.055Z,97741.38
2022-08-18T09:05:17.839Z,97744.34
2022-08-18T09:09:01.964Z,97751.59
2022-08-18T09:12:42.211Z,97739.03
2022-08-18T09:16:18.180Z,97735.03
2022-08-18T09:20:05.221Z,97736.41
2022-08-18T09:23:22.129Z,97742.13
2022-08-18T09:26:43.752Z,97728.91
2022-08-18T09:29:57.639Z,97726.69
2022-08-18T09:33:37.517Z,97736.25
2022-08-18T09:37:16.378Z,97725.47
2022-08-18T09:41:01.704Z,97734.44
2022-08-18T09:44:21.186Z,97741.00
2022-08-18T09:48:03.459Z,97736.50
2022-08-18T09:51:41.312Z,97744.09
2022-08-18T09:55:02.147Z,97729.06
2022-08-18T10:01:52.483Z,97729.41
2022-08-18T10:05:31.501Z,97720.28
2022-08-18T10:09:35.994Z,97712.47
2022-08-18T10:13:24.734Z,97700.78
2022-08-18T10:17:13.230Z,97705.97
2022-08-18T10:20:38.977Z,97705.78
2022-08-18T10:24:21.967Z,97700.84
2022-08-18T10:27:57.731Z,97698.22
2022-08-18T10:31:09.753Z,97695.09
2022-08-18T10:34:36.617Z,97674.63
2022-08-18T10:37:51.194Z,97674.69
2022-08-18T10:44:44.779Z,97671.53
2022-08-18T10:48:24.351Z,97667.28
2022-08-18T10:52:02.107Z,97670.97
2022-08-18T10:55:48.283Z,97662.19
2022-08-18T10:59:17.980Z,97662.66
2022-08-18T11:03:02.669Z,97658.25
2022-08-18T11:06:26.858Z,97656.50
2022-08-18T11:09:35.188Z,97653.16
2022-08-18T11:13:12.233Z,97659.03
2022-08-18T11:16:39.078Z,97661.09
2022-08-18T11:19:50.783Z,97641.09
2022-08-18T11:23:05.800Z,97643.66
2022-08-18T11:26:19.554Z,97641.19
2022-08-18T11:29:35.028Z,97631.75
2022-08-18T11:32:51.542Z,97625.03
2022-08-18T11:36:09.239Z,97621.22
2022-08-18T11:39:35.973Z,97626.88
2022-08-18T11:42:58.243Z,97615.88
2022-08-18T11:46:17.535Z,97601.75
2022-08-18T11:49:35.982Z,97607.22
2022-08-18T11:52:57.179Z,97612.84
2022-08-18T11:56:17.978Z,97605.88
2022-08-18T11:59:52.734Z,97601.47
2022-08-18T12:03:05.993Z,97599.06
2022-08-18T12:06:27.978Z,97600.25
2022-08-18T12:10:17.975Z,97602.44
2022-08-18T12:13:27.376Z,97596.09
2022-08-18T12:16:46.575Z,97589.09
2022-08-18T12:20:02.576Z,97580.16
2022-08-18T12:23:23.451Z,97594.66
2022-08-18T12:26:38.836Z,97581.69
2022-08-18T12:29:53.745Z,97569.69
2022-08-18T12:33:07.819Z,97580.22
2022-08-18T12:36:19.041Z,97580.97
2022-08-18T12:39:28.804Z,97576.59
2022-08-18T12:42:40.680Z,97573.72
2022-08-18T12:45:47.291Z,97564.56
2022-08-18T12:48:55.910Z,97559.31
2022-08-18T12:52:03.380Z,97570.84
2022-08-18T12:55:22.009Z,97574.91
2022-08-18T12:58:31.453Z,97571.81
2022-08-18T13:01:43.820Z,97583.31
2022-08-18T13:04:49.507Z,97578.41
2022-08-18T13:07:56.294Z,97584.19
2022-08-18T13:11:14.500Z,97579.28
2022-08-18T13:14:32.224Z,97591.09
2022-08-18T13:17:41.593Z,97596.22
2022-08-18T13:20:51.299Z,97607.22
2022-08-18T13:23:57.467Z,97608.41
2022-08-18T13:27:18.657Z,97606.78
2022-08-18T13:30:32.887Z,97601.63
2022-08-18T13:33:56.848Z,97599.00
2022-08-18T13:37:03.391Z,97601.31
2022-08-18T13:40:10.550Z,97596.88
2022-08-18T13:43:23.278Z,97607.91
2022-08-18T13:46:31.810Z,97611.59
2022-08-18T13:49:37.637Z,97605.09
2022-08-18T13:52:44.814Z,97599.81
2022-08-18T13:55:51.806Z,97596.28
2022-08-18T13:58:57.420Z,97605.66
2022-08-18T14:02:11.716Z,97603.03
2022-08-18T14:05:19.075Z,97607.19
2022-08-18T14:08:29.309Z,97588.41
2022-08-18T14:11:41.837Z,97589.88
2022-08-18T14:14:47.704Z,97600.44
2022-08-18T14:17:56.072Z,97592.53
2022-08-18T14:21:17.041Z,97601.06
2022-08-18T14:24:41.320Z,97592.66
2022-08-18T14:27:56.695Z,97576.34
2022-08-18T14:31:07.027Z,97583.91
2022-08-18T14:34:15.473Z,97570.56
2022-08-18T14:37:27.929Z,97573.91
2022-08-18T14:40:35.095Z,97571.03
2022-08-18T14:44:05.479Z,97563.88
2022-08-18T14:47:07.644Z,97551.16
2022-08-18T14:50:15.972Z,97556.97
2022-08-18T14:53:33.846Z,97557.28
2022-08-18T14:56:41.402Z,97555.72
2022-08-18T14:59:47.831Z,97565.66
2022-08-18T15:02:53.449Z,97564.69
2022-08-18T15:06:06.417Z,97574.53
2022-08-18T15:09:20.350Z,97572.75
2022-08-18T15:12:35.357Z,97582.47
2022-08-18T15:15:50.557Z,97571.78
2022-08-18T15:18:57.045Z,97572.84
2022-08-18T15:22:17.643Z,97574.50
2022-08-18T15:25:45.056Z,97565.63
2022-08-18T15:28:50.934Z,97568.19
2022-08-18T15:32:10.257Z,97575.50
2022-08-18T15:35:23.244Z,97573.69
2022-08-18T15:38:31.567Z,97588.63
2022-08-18T15:41:43.974Z,97582.47
2022-08-18T15:44:52.577Z,97589.75
2022-08-18T15:47:59.666Z,97586.88
2022-08-18T15:51:12.542Z,97584.53
2022-08-18T15:54:20.904Z,97583.31
2022-08-18T15:57:39.197Z,97578.78
2022-08-18T16:00:50.480Z,97570.88
2022-08-18T16:04:10.378Z,97573.31
2022-08-18T16:07:25.188Z,97566.34
2022-08-18T16:10:54.325Z,97573.00
2022-08-18T16:14:05.339Z,97566.53
2022-08-18T16:17:23.462Z,97561.22
2022-08-18T16:20:36.947Z,97559.31
2022-08-18T16:23:45.256Z,97565.25
2022-08-18T16:26:59.772Z,97565.53
2022-08-18T16:30:07.502Z,97569.75
2022-08-18T16:33:25.253Z,97561.81
2022-08-18T16:36:30.965Z,97567.47
2022-08-18T16:39:36.733Z,97563.91
2022-08-18T16:42:46.026Z,97565.53
2022-08-18T16:45:57.323Z,97571.66
2022-08-18T16:49:08.307Z,97562.88
2022-08-18T16:52:15.699Z,97551.72
2022-08-18T16:55:21.383Z,97545.94
2022-08-18T16:58:41.982Z,97545.88
2022-08-18T17:02:00.339Z,97540.06
2022-08-18T17:05:06.977Z,97529.88
2022-08-18T17:08:13.164Z,97540.47
2022-08-18T17:11:27.427Z,97539.19
2022-08-18T17:14:38.194Z,97541.50
2022-08-18T17:17:44.209Z,97538.03
2022-08-18T17:20:50.675Z,97535.75
2022-08-18T17:23:58.773Z,97539.91
2022-08-18T17:27:26.558Z,97549.44
2022-08-18T17:30:49.220Z,97544.84
2022-08-18T17:34:18.881Z,97552.69
2022-08-18T17:37:26.848Z,97560.91
2022-08-18T17:40:43.190Z,97566.00
2022-08-18T17:43:49.999Z,97562.56
2022-08-18T17:47:03.337Z,97576.34
2022-08-18T17:50:45.824Z,97566.22
2022-08-18T17:53:52.273Z,97568.97
2022-08-18T17:57:05.775Z,97569.88
2022-08-18T18:00:23.616Z,97577.72
2022-08-18T18:03:34.232Z,97593.53
2022-08-18T18:06:46.277Z,97596.84
2022-08-18T18:10:08.477Z,97606.66
2022-08-18T18:13:32.605Z,97598.56
2022-08-18T18:16:39.100Z,97596.75
2022-08-18T18:19:52.285Z,97591.13
2022-08-18T18:22:59.176Z,97596.69
2022-08-18T18:26:36.719Z,97585.97
2022-08-18T18:29:43.325Z,97585.13
2022-08-18T18:33:08.120Z,97586.06
2022-08-18T18:36:36.981Z,97585.25
2022-08-18T18:39:42.593Z,97586.19
2022-08-18T18:42:48.368Z,97581.97
2022-08-18T18:46:34.896Z,97580.75
2022-08-18T18:49:55.570Z,97575.66
2022-08-18T18:53:23.738Z,97559.38
2022-08-18T18:56:38.913Z,97553.78
2022-08-18T19:00:10.615Z,97549.19
2022-08-18T19:03:26.918Z,97549.19
2022-08-18T19:06:44.294Z,97530.69
2022-08-18T19:10:09.769Z,97522.38
2022-08-18T19:13:32.295Z,97515.66
2022-08-18T19:16:49.856Z,97518.19
2022-08-18T19:20:05.650Z,97516.59
2022-08-18T19:23:44.557Z,97526.84
2022-08-18T19:27:02.750Z,97527.69
2022-08-18T19:30:20.149Z,97530.25
2022-08-18T19:33:46.607Z,97528.19
2022-08-18T19:37:05.878Z,97524.13
2022-08-18T19:40:21.660Z,97501.28
2022-08-18T19:43:45.146Z,97513.88
2022-08-18T19:46:57.362Z,97517.41
2022-08-18T19:50:18.477Z,97512.53
2022-08-18T19:54:07.614Z,97515.53
2022-08-18T19:57:37.453Z,97514.25
2022-08-18T20:00:58.362Z,97508.31
2022-08-18T20:04:31.154Z,97492.34
2022-08-18T20:08:11.509Z,97498.34
2022-08-18T20:11:46.625Z,97505.44
2022-08-18T20:15:16.828Z,97495.94
2022-08-18T20:18:36.005Z,97489.75
2022-08-18T20:21:51.357Z,97481.41
2022-08-18T20:25:12.564Z,97481.25
2022-08-18T20:28:38.741Z,97474.78
2022-08-18T20:32:06.471Z,97488.09
2022-08-18T20:35:32.615Z,97479.38
2022-08-18T20:38:45.841Z,97471.31
2022-08-18T20:41:52.095Z,97470.31
2022-08-18T20:45:05.802Z,97465.16
2022-08-18T20:48:47.611Z,97477.94
2022-08-18T20:52:07.085Z,97466.25
2022-08-18T20:55:36.434Z,97455.59
2022-08-18T20:58:57.765Z,97468.19
2022-08-18T21:02:08.911Z,97452.13
2022-08-18T21:05:16.642Z,97459.75
2022-08-18T21:08:41.440Z,97460.84
2022-08-18T21:11:52.719Z,97456.75
2022-08-18T21:15:03.168Z,97468.44
2022-08-18T21:18:21.824Z,97471.69
2022-08-18T21:21:33.197Z,97480.03
2022-08-18T21:24:50.153Z,97478.94
2022-08-18T21:27:57.664Z,97482.19
2022-08-18T21:31:42.510Z,97480.34
2022-08-18T21:34:43.023Z,97476.03
2022-08-18T21:37:59.931Z,97478.75
2022-08-18T21:41:16.802Z,97476.88
2022-08-18T21:44:29.122Z,97486.66
2022-08-18T21:47:37.991Z,97485.03
2022-08-18T21:50:58.403Z,97485.03
2022-08-18T21:54:28.127Z,97482.94
2022-08-18T21:58:03.844Z,97478.03
2022-08-18T22:01:26.190Z,97482.97
2022-08-18T22:04:36.452Z,97468.03
2022-08-18T22:07:50.143Z,97468.34
2022-08-18T22:12:01.313Z,97474.88
2022-08-18T22:15:18.971Z,97468.13
2022-08-18T22:18:42.488Z,97473.06
2022-08-18T22:21:56.592Z,97482.84
2022-08-18T22:25:00.246Z,97482.31
2022-08-18T22:28:06.294Z,97482.31
2022-08-18T22:31:21.057Z,97477.47
2022-08-18T22:34:34.455Z,97488.16
2022-08-18T22:37:50.805Z,97485.94
2022-08-18T22:40:56.992Z,97487.56
2022-08-18T22:44:05.843Z,97486.81
2022-08-18T22:47:14.516Z,97489.53
2022-08-18T22:50:38.284Z,97492.00
2022-08-18T22:53:46.738Z,97491.69
2022-08-18T22:56:57.643Z,97493.63
2022-08-18T23:00:10.626Z,97487.69
2022-08-18T23:03:42.378Z,97496.94
2022-08-18T23:06:52.160Z,97494.81
2022-08-18T23:10:00.207Z,97489.97
2022-08-18T23:13:09.242Z,97492.69
2022-08-18T23:16:31.863Z,97491.09
2022-08-18T23:19:40.924Z,97500.59
2022-08-18T23:22:47.034Z,97494.03
2022-08-18T23:25:52.793Z,97497.31
2022-08-18T23:28:58.329Z,97487.81
2022-08-18T23:32:05.314Z,97486.47
2022-08-18T23:35:13.641Z,97489.47
2022-08-18T23:38:20.243Z,97490.00
2022-08-18T23:41:28.539Z,97486.19
2022-08-18T23:44:34.376Z,97483.75
2022-08-18T23:47:41.597Z,97476.16
2022-08-18T23:50:53.620Z,97481.34
2022-08-18T23:54:05.247Z,97474.31
2022-08-18T23:57:10.856Z,97471.59
